Pula, Croatia
Current Conditions -  °F | °C
As of 12:30 AM on Monday 26 Jan 2015 (Local Time) from LDPL Reporting Station
Clear Clear  
Wind Chill: 37°   Ceiling: Unl
Heat Index: 43°   Visibility: 6mi
Dew Point: 23°   Wind: 9mph
Humidity: 46%   Direction: 50°NE
Pressure: 30.15"   Gusts: NA
Location:  44.88°N, 13.84°E
Report Text: LDPL 252230Z 05008KT 020V080 CAVOK 06/M05 Q1021
Loading
Personal Weather Stations






























Interactive Weather Map New forecast layout! Learn more

10-Day Weather Forecast

Advertisements
Track Severe Weather on mobile